This is the latest recevied weather packets stored in our database for station/object LZ0VRC-10. If no packets are shown the sender has not sent any weather packets the latest 10 day(s).
| Time | Temp. | Humidity | Pressure | Rain* | Wind** | Luminosity | Snow |
|---|---|---|---|---|---|---|---|
| 1777314518 | 13.89° C | 49% | 1020.2 hPa | - | - | - | - |
| 1777313622 | 13.89° C | 48% | 1020 hPa | - | - | - | - |
| 1777313618 | 13.89° C | 48% | 1020 hPa | - | - | - | - |
| 1777312718 | 13.89° C | 48% | 1019.9 hPa | - | - | - | - |
| 1777311832 | 14.44° C | 47% | 1019.8 hPa | - | - | - | - |
| 1777311823 | 14.44° C | 47% | 1019.8 hPa | - | - | - | - |
| 1777311818 | 14.44° C | 47% | 1019.8 hPa | - | - | - | - |
| 1777310926 | 14.44° C | 46% | 1019.7 hPa | - | - | - | - |
| 1777310918 | 14.44° C | 46% | 1019.7 hPa | - | - | - | - |
| 1777310018 | 15.56° C | 42% | 1019.6 hPa | - | - | - | - |
| 1777309125 | 16.11° C | 40% | 1019.6 hPa | - | - | - | - |
| 1777309118 | 16.11° C | 40% | 1019.6 hPa | - | - | - | - |
| 1777308223 | 18.33° C | 34% | 1019.6 hPa | - | - | - | - |
| 1777308218 | 18.33° C | 34% | 1019.6 hPa | - | - | - | - |
| 1777307318 | 17.78° C | 35% | 1019.6 hPa | - | - | - | - |
| 1777306423 | 19.44° C | 32% | 1019.6 hPa | - | - | - | - |
| 1777306418 | 19.44° C | 32% | 1019.6 hPa | - | - | - | - |
| 1777305525 | 20.56° C | 30% | 1019.7 hPa | - | - | - | - |
| 1777305518 | 20.56° C | 30% | 1019.7 hPa | - | - | - | - |
| 1777304618 | 20° C | 32% | 1020 hPa | - | - | - | - |
| 1777303718 | 20° C | 31% | 1020 hPa | - | - | - | - |
| 1777302823 | 21.11° C | 30% | 1020.1 hPa | - | - | - | - |
| 1777302818 | 21.11° C | 30% | 1020.1 hPa | - | - | - | - |
| 1777301918 | 21.11° C | 29% | 1020.2 hPa | - | - | - | - |
| 1777301018 | 22.22° C | 28% | 1020.4 hPa | - | - | - | - |
* Rain since midnight (hover to see other rain measurements)
** Current wind speed in m/s (hover to see current wind gust speed)